Wailuku, HI (96793)

1:34 AM HST on November 25, 2017 (GMT -1000)
Wailuku Heights | | Change Station
Active Advisory: High Surf Advisory Active Notice: High Surf Advisory

Elev 761 ft 20.87 °N, 156.52 °W | Updated 1 second ago

Partly Cloudy
Partly Cloudy
67.0 °F
Feels Like 67.0 °F
N
6.0
Wind Variable Wind from NNE
Gusts 10.0 mph

Today
High -- | Low -- °F
--% Chance of Precip.
Yesterday
High -- | Low -- °F
Precip. -- in
Pressure 30.04 in
Visibility 10.0 miles
Clouds Few 3900 ft
Scattered Clouds 5000 ft
Dew Point 61 °F
Humidity 82%
Rainfall 0.00 in
Snow Depth Not available.
6:42 AM 5:43 PM
Waxing Crescent, 38% visible
METAR PHOG 251054Z AUTO 07009KT 10SM FEW039 SCT050 20/17 A3003 RMK AO2 RAB44E53 SLP172 P0000 T02000167 TSNO
Pressure 30.04 in
Visibility 10.0 miles
Clouds Few 3900 ft
Scattered Clouds 5000 ft
Dew Point 61 °F
Humidity 82%
Rainfall 0.00 in
Snow Depth Not available.
6:42 AM 5:43 PM
Waxing Crescent, 38% visible
METAR PHOG 251054Z AUTO 07009KT 10SM FEW039 SCT050 20/17 A3003 RMK AO2 RAB44E53 SLP172 P0000 T02000167 TSNO

Get Your Daily Forecast Email!

Thanks for signing up!

Be on the lookout for a verification email in your inbox.

You'll start receiving severe weather alerts in your inbox..

×

10-Day Weather Forecast

Almanac

Astronomy

Nov. 25, 2017 Rise Set
Actual Time
Civil Twilight
Nautical Twilight
Astronomical Twilight
Moon
Length of Visible Light
Length of Day
Tomorrow will be .
, % of the Moon is Illuminated

Today's Extremes

State Highs State Lows

Community

WunderPhotos

Category 6

Welcome to Category 6. This is the collective home for Weather Underground's featured writeups by Dr. Jeff Masters (right), Bob Henson (left), Chris Burt, and other regular contributors.

Nearby

Air Quality

  Air Quality AQ Index Pollutant
Not available.

Snow Depth

Station Depth Elevation

Earthquake Activity

City Distance Mag. Time & Date
Minimum magnitude displayed is 2.5.

Coastal Water Temperatures

Place Temperature

Stations

Nearby Weather Stations

Station Location Temp. Windchill Dew Point Humidity Wind Precip. Elev Updated Type
                   

Watches & Warnings

High Surf Advisory
Issued: 3:32 PM HST Nov. 24, 2017 – National Weather Service

... High surf advisory in effect until 10 am HST Saturday...
... High surf warning is cancelled...

The National Weather Service in Honolulu has issued a high surf
advisory... which is in effect until 10 am HST Saturday. The high
surf warning has been cancelled.

* Surf... 12 to 16 feet along north facing shores... and 6 to 10
feet along east facing shores of Niihau... Kauai... Oahu... Molokai
and Maui.

* Timing... through 10 am Saturday.

* Impacts... moderate... expect strong breaking waves, shore break,
and strong longshore and rip currents making swimming difficult
and dangerous.

Precautionary/preparedness actions...

Always heed lifeguard advice and know your limits. When in
doubt... do not go out.